• Join FlightAware (Why Join?)
  • Login
  • US Flag 
02:33PM EDT


 

Airport Tracker/Info


-or-


 

Live Flight TrackerFlight Track Log ✈ N851TB ✈ 06-Jun-2014 ✈ KBOW - KOPF

Flight Track Log - Related Links

Times and Time Zones

All times are in EDT time to prevent confusion due to time zone crossing. See the N851TB flight status page for this flight to view local times or setup timezone preferences in your user account.

Time Position Orientation Groundspeed Altitude Reporting Facility
EDT Latitude Longitude Course Direction KTS MPH feet Rate Location/Type
04:03PM 27.9333 -81.8000 178° South 92 106 900  Level Tampa TRACON
04:04PM 27.9100 -81.7992 178° South 146 168 1,700 1,140 Climbing Miami Center
04:05PM 27.8644 -81.7947 175° South 157 181 3,000 720 Climbing Miami Center
04:06PM 27.8050 -81.7906 176° South 212 244 3,300 1,260 Climbing Miami Center
04:07PM 27.7444 -81.7708 164° South 182 209 5,700 2,220 Climbing Miami Center
04:08PM 27.7033 -81.7600 167° South 157 181 7,900 1,980 Climbing Miami Center
04:09PM 27.6606 -81.7461 164° South 156 180 9,900 1,800 Climbing Miami Center
04:10PM 27.6164 -81.7333 166° South 159 183 11,700 1,740 Climbing Miami Center
04:11PM 27.5686 -81.7197 166° South 173 199 13,500 1,500 Climbing Miami Center
04:12PM 27.5178 -81.7042 165° South 185 213 14,900 660 Climbing Miami Center
04:13PM 27.4353 -81.6800 165° South 257 296 14,900  Level Miami Center
04:15PM 27.3583 -81.6572 165° South 282 325 14,900  Level Miami Center
04:16PM 27.2806 -81.6347 166° South 286 329 14,900  Level Miami Center
04:17PM 27.2028 -81.6114 165° South 287 330 14,900  Level Miami Center
04:18PM 27.1261 -81.5889 165° South 286 329 15,000  Climbing Miami Center
04:19PM 27.0492 -81.5664 165° South 286 329 15,000  Level Miami Center
04:20PM 26.9556 -81.5394 166° South 285 328 15,000  Level Miami Center
04:21PM 26.8789 -81.5172 166° South 286 329 15,000  Level Miami Center
04:22PM 26.7956 -81.4928 165° South 286 329 15,000  Level Miami Center
04:23PM 26.7183 -81.4708 166° South 287 330 15,000  Level Miami Center
04:24PM 26.6356 -81.4469 166° South 286 329 15,000  Level Miami Center
04:25PM 26.5667 -81.4100 154° Southeast 282 325 15,000  Level Miami Center
04:26PM 26.5039 -81.3486 139° Southeast 281 323 15,000 -180 Level Miami Center
04:27PM 26.4450 -81.2925 140° Southeast 281 323 14,700 -1,020 Descending Miami Center
04:28PM 26.3764 -81.2281 140° Southeast 298 343 13,000 -1,680 Descending Miami Center
04:29PM 26.3133 -81.1672 139° Southeast 303 349 11,300 -1,620 Descending Miami Center
04:30PM 26.2786 -81.1342 140° Southeast 240 276 10,300 -1,500 Descending Miami Center
04:30PM 26.2581 -81.1144 139° Southeast 233 268 9,800 -1,320 Descending Miami Center
04:31PM 26.2136 -81.0728 140° Southeast 193 222 8,500 -1,140 Descending Miami Center
04:32PM 26.1675 -81.0411 148° Southeast 197 227 7,500 -900 Descending Miami Center
04:33PM 26.1161 -80.9950 141° Southeast 219 252 6,600 -840 Descending Miami Center
04:34PM 26.0969 -80.9400 111° Southeast 211 243 5,800 -840 Descending Miami Center
04:35PM 26.0681 -80.8725 115° Southeast 230 265 5,000 -420 Descending Miami Center
04:36PM 26.0439 -80.8136 115° Southeast 205 236 5,000 -480 Level Miami Center
04:37PM 26.0156 -80.7456 115° Southeast 238 274 4,100 -900 Descending Miami Center
04:38PM 25.9942 -80.6906 113° Southeast 174 200 3,200 -1,020 Descending Miami Center
04:39PM 25.9767 -80.6381 110° East 180 207 2,100 -840 Descending Miami Center
04:40PM 25.9567 -80.5900 115° Southeast 163 188 1,600 -300 Descending Miami Center
04:41PM 25.9425 -80.5494 111° Southeast 128 147 1,600  Level Miami Center
04:42PM 25.9125 -80.5308 151° Southeast 134 154 1,600  Level Miami Center
04:43PM 25.9044 -80.4933 103° East 140 161 1,600  Level Miami Center
04:44PM 25.9047 -80.4869 87° East 139 160 1,600  Level Miami Center
04:44PM 25.9053 -80.4469 89° East 143 165 1,600  Level Miami Center
04:45PM 25.9056 -80.4414 87° East 144 166 1,600  Level Miami Center
04:45PM 25.9081 -80.4033 86° East 142 163 1,600  Level Miami Center
04:46PM 25.9083 -80.3972 87° East 144 166 1,600 -540 Level Miami Center
04:46PM 25.9086 -80.3617 89° East 119 137 1,100 -600 Descending Miami Center
04:47PM 25.9097 -80.3569 75° East 131 151 1,000 -540 Descending Miami Center
04:47PM 25.9108 -80.3247 88° East 115 132 600 -540 Descending Miami Center
04:48PM 25.9111 -80.3156 88° East 116 133 500 -420 Descending Miami Center
04:49PM 25.9133 -80.2808 86° East 111 128 100 -420 Descending Miami Center
04:51PM 25.9074 -80.2782 98° East  Level Estimated